createdAt,value
2019-06-15T00:00:48.083Z,4.73
2019-06-15T00:03:19.891Z,5.27
2019-06-15T00:05:51.895Z,4.33
2019-06-15T00:08:24.148Z,5.07
2019-06-15T00:10:55.978Z,4.60
2019-06-15T00:13:27.682Z,4.10
2019-06-15T00:16:00.202Z,4.70
2019-06-15T00:18:31.930Z,5.23
2019-06-15T00:21:03.812Z,4.63
2019-06-15T00:23:35.673Z,5.30
2019-06-15T00:26:07.396Z,5.23
2019-06-15T00:28:40.592Z,5.03
2019-06-15T00:31:12.960Z,4.97
2019-06-15T00:33:44.609Z,4.67
2019-06-15T00:36:16.231Z,4.63
2019-06-15T00:38:47.880Z,4.93
2019-06-15T00:41:20.837Z,5.47
2019-06-15T00:43:52.754Z,5.10
2019-06-15T00:46:25.265Z,4.63
2019-06-15T00:48:57.172Z,5.43
2019-06-15T00:51:28.871Z,4.50
2019-06-15T00:54:00.639Z,4.87
2019-06-15T00:56:32.288Z,4.87
2019-06-15T00:59:04.130Z,4.57
2019-06-15T01:01:36.671Z,4.83
2019-06-15T01:04:08.313Z,4.97
2019-06-15T01:06:40.420Z,6.00
2019-06-15T01:09:12.108Z,5.53
2019-06-15T01:11:43.818Z,5.30
2019-06-15T01:14:15.472Z,6.17
2019-06-15T01:16:47.872Z,6.00
2019-06-15T01:19:19.494Z,5.50
2019-06-15T01:21:51.653Z,5.90
2019-06-15T01:24:23.420Z,6.23
2019-06-15T01:26:55.114Z,6.00
2019-06-15T01:29:27.102Z,6.23
2019-06-15T01:31:59.387Z,5.27
2019-06-15T01:34:31.122Z,6.20
2019-06-15T01:37:03.233Z,5.57
2019-06-15T01:39:34.978Z,7.13
2019-06-15T01:42:06.619Z,5.57
2019-06-15T01:44:38.512Z,5.93
2019-06-15T01:47:10.908Z,4.63
2019-06-15T01:49:42.910Z,5.93
2019-06-15T01:52:14.572Z,5.40
2019-06-15T01:54:46.217Z,5.80
2019-06-15T01:57:17.949Z,5.93
2019-06-15T01:59:49.676Z,5.80
2019-06-15T02:02:22.188Z,6.80
2019-06-15T02:04:53.908Z,5.60
2019-06-15T02:07:25.574Z,5.57
2019-06-15T02:09:57.222Z,5.30
2019-06-15T02:12:28.885Z,4.90
2019-06-15T02:15:00.656Z,5.90
2019-06-15T02:17:32.846Z,5.37
2019-06-15T02:20:06.309Z,4.70
2019-06-15T02:22:37.923Z,4.83
2019-06-15T02:25:09.972Z,4.30
2019-06-15T02:27:41.685Z,5.40
2019-06-15T02:30:14.351Z,5.70
2019-06-15T02:32:46.087Z,5.70
2019-06-15T02:35:18.110Z,6.07
2019-06-15T02:37:49.885Z,6.50
2019-06-15T02:40:21.828Z,6.43
2019-06-15T02:42:53.494Z,6.00
2019-06-15T02:45:26.479Z,5.87
2019-06-15T02:47:58.276Z,5.77
2019-06-15T02:50:30.630Z,5.70
2019-06-15T02:53:02.299Z,5.83
2019-06-15T02:55:33.961Z,5.27
2019-06-15T02:58:05.786Z,5.80
2019-06-15T03:00:50.659Z,6.40
2019-06-15T03:03:22.311Z,5.50
2019-06-15T03:05:55.184Z,6.20
2019-06-15T03:08:27.313Z,7.20
2019-06-15T03:10:58.962Z,7.27
2019-06-15T03:13:30.705Z,7.37
2019-06-15T03:16:02.412Z,6.90
2019-06-15T03:18:34.429Z,6.93
2019-06-15T03:21:06.568Z,8.23
2019-06-15T03:23:38.297Z,7.20
2019-06-15T03:26:09.991Z,7.93
2019-06-15T03:28:41.592Z,7.20
2019-06-15T03:31:13.341Z,7.20
2019-06-15T03:33:45.056Z,6.63
2019-06-15T03:36:17.088Z,6.67
2019-06-15T03:38:48.927Z,7.00
2019-06-15T03:41:20.673Z,5.10
2019-06-15T03:43:52.495Z,5.47
2019-06-15T03:46:24.151Z,4.87
2019-06-15T03:48:55.832Z,5.50
2019-06-15T03:51:29.747Z,4.00
2019-06-15T03:54:01.440Z,4.07
2019-06-15T03:56:33.207Z,3.90
2019-06-15T03:59:04.881Z,4.63
2019-06-15T04:01:45.310Z,3.80
2019-06-15T04:04:17.043Z,3.50
2019-06-15T04:06:49.144Z,4.10
2019-06-15T04:09:20.783Z,3.77
2019-06-15T04:11:52.540Z,3.57
2019-06-15T04:14:26.068Z,3.77
2019-06-15T04:16:59.307Z,3.53
2019-06-15T04:19:32.488Z,3.40
2019-06-15T04:22:06.180Z,4.50
2019-06-15T04:24:38.503Z,4.20
2019-06-15T04:27:11.847Z,3.60
2019-06-15T04:29:45.112Z,3.20
2019-06-15T04:32:17.079Z,3.60
2019-06-15T04:34:48.710Z,3.53
2019-06-15T04:37:20.373Z,4.87
2019-06-15T04:39:52.350Z,3.63
2019-06-15T04:42:24.057Z,3.90
2019-06-15T04:44:55.837Z,4.10
2019-06-15T04:47:27.684Z,4.17
2019-06-15T04:49:59.365Z,4.70
2019-06-15T04:52:31.365Z,4.47
2019-06-15T04:55:04.082Z,3.97
2019-06-15T04:57:35.727Z,3.70
2019-06-15T05:00:09.394Z,5.07
2019-06-15T05:02:41.097Z,5.20
2019-06-15T05:05:13.251Z,4.37
2019-06-15T05:07:45.074Z,4.40
2019-06-15T05:10:17.420Z,4.70
2019-06-15T05:12:49.312Z,5.57
2019-06-15T05:15:21.136Z,5.07
2019-06-15T05:17:52.862Z,4.60
2019-06-15T05:20:24.879Z,4.73
2019-06-15T05:22:56.515Z,5.00
2019-06-15T05:25:28.885Z,5.00
2019-06-15T05:28:00.540Z,4.77
2019-06-15T05:30:32.768Z,5.70
2019-06-15T05:33:04.566Z,4.90
2019-06-15T05:35:36.219Z,4.87
2019-06-15T05:38:07.929Z,4.90
2019-06-15T05:40:40.232Z,4.57
2019-06-15T05:43:12.215Z,4.63
2019-06-15T05:45:44.133Z,4.40
2019-06-15T05:48:15.825Z,5.20
2019-06-15T05:50:47.557Z,5.30
2019-06-15T05:53:19.239Z,4.30
2019-06-15T05:55:51.717Z,4.80
2019-06-15T05:58:23.930Z,5.07
2019-06-15T06:00:55.828Z,4.60
2019-06-15T06:03:28.469Z,3.67
2019-06-15T06:06:01.164Z,4.30
2019-06-15T06:08:32.780Z,3.53
2019-06-15T06:11:05.321Z,3.70
2019-06-15T06:13:35.953Z,3.77
2019-06-15T06:16:06.635Z,3.40
2019-06-15T06:18:38.354Z,3.17
2019-06-15T06:21:10.252Z,3.40
2019-06-15T06:23:42.034Z,3.40
2019-06-15T06:26:13.888Z,3.60
2019-06-15T06:28:56.929Z,2.50
2019-06-15T06:31:19.134Z,3.17
2019-06-15T06:33:51.227Z,2.67
2019-06-15T06:36:23.351Z,2.60
2019-06-15T06:38:55.060Z,2.73
2019-06-15T06:41:26.882Z,2.93
2019-06-15T06:43:58.791Z,3.37
2019-06-15T06:46:30.548Z,2.67
2019-06-15T06:49:02.269Z,2.13
2019-06-15T06:51:34.390Z,2.10
2019-06-15T06:54:06.514Z,2.43
2019-06-15T06:56:38.194Z,2.50
2019-06-15T06:59:10.075Z,2.47
2019-06-15T07:01:41.996Z,2.67
2019-06-15T07:04:13.820Z,2.60
2019-06-15T07:06:45.557Z,2.57
2019-06-15T07:09:17.353Z,2.67
2019-06-15T07:11:49.206Z,3.37
2019-06-15T07:14:24.078Z,3.00
2019-06-15T07:16:55.754Z,2.60
2019-06-15T07:19:27.839Z,2.23
2019-06-15T07:21:59.757Z,1.97
2019-06-15T07:24:31.940Z,2.30
2019-06-15T07:27:03.641Z,2.90
2019-06-15T07:29:35.597Z,2.33
2019-06-15T07:32:07.268Z,2.73
2019-06-15T07:34:38.990Z,2.57
2019-06-15T07:37:10.665Z,2.10
2019-06-15T07:39:42.400Z,2.30
2019-06-15T07:42:14.248Z,2.83
2019-06-15T07:44:46.240Z,2.13
2019-06-15T07:47:17.939Z,2.03
2019-06-15T07:49:49.754Z,2.53
2019-06-15T07:52:21.638Z,2.20
2019-06-15T07:54:53.416Z,2.40
2019-06-15T07:57:25.217Z,2.03
2019-06-15T07:59:57.058Z,2.10
2019-06-15T08:02:28.702Z,1.83
2019-06-15T08:05:01.343Z,1.90
2019-06-15T08:07:33.100Z,1.83
2019-06-15T08:10:05.814Z,2.13
2019-06-15T08:12:37.476Z,1.70
2019-06-15T08:15:10.340Z,2.00
2019-06-15T08:17:45.424Z,2.10
2019-06-15T08:20:18.240Z,1.60
2019-06-15T08:22:49.892Z,1.57
2019-06-15T08:25:21.954Z,1.77
2019-06-15T08:27:53.869Z,2.37
2019-06-15T08:30:39.887Z,1.60
2019-06-15T08:33:11.712Z,1.97
2019-06-15T08:35:43.718Z,1.80
2019-06-15T08:38:15.411Z,1.70
2019-06-15T08:40:47.267Z,2.27
2019-06-15T08:43:18.941Z,1.93
2019-06-15T08:45:50.757Z,1.73
2019-06-15T08:48:22.665Z,1.63
2019-06-15T08:50:54.556Z,1.80
2019-06-15T08:53:26.229Z,2.07
2019-06-15T08:55:58.039Z,1.40
2019-06-15T08:58:29.779Z,1.50
2019-06-15T09:01:01.726Z,1.53
2019-06-15T09:03:33.818Z,1.57
2019-06-15T09:06:05.562Z,1.60
2019-06-15T09:08:37.376Z,1.23
2019-06-15T09:11:09.119Z,1.50
2019-06-15T09:13:40.817Z,1.50
2019-06-15T09:16:12.592Z,1.77
2019-06-15T09:18:45.039Z,1.53
2019-06-15T09:21:16.778Z,1.70
2019-06-15T09:23:48.605Z,1.77
2019-06-15T09:26:20.373Z,1.93
2019-06-15T09:28:52.278Z,1.70
2019-06-15T09:31:24.644Z,1.90
2019-06-15T09:33:56.473Z,1.47
2019-06-15T09:36:28.240Z,2.60
2019-06-15T09:38:59.910Z,1.70
2019-06-15T09:41:31.828Z,1.53
2019-06-15T09:44:03.549Z,2.07
2019-06-15T09:46:35.879Z,2.13
2019-06-15T09:49:07.684Z,1.70
2019-06-15T09:51:39.479Z,2.00
2019-06-15T09:54:11.288Z,1.50
2019-06-15T09:56:42.966Z,1.50
2019-06-15T09:59:25.552Z,1.40
2019-06-15T10:01:48.709Z,1.43
2019-06-15T10:04:22.380Z,1.63
2019-06-15T10:06:55.577Z,1.50
2019-06-15T10:09:28.985Z,1.70
2019-06-15T10:12:01.140Z,1.60
2019-06-15T10:14:33.650Z,1.67
2019-06-15T10:17:06.338Z,1.60
2019-06-15T10:19:38.195Z,1.80
2019-06-15T10:22:09.970Z,1.70
2019-06-15T10:24:41.684Z,1.60
2019-06-15T10:27:13.504Z,1.70
2019-06-15T10:29:46.075Z,1.30
2019-06-15T10:32:18.198Z,1.30
2019-06-15T10:34:51.145Z,1.63
2019-06-15T10:37:23.168Z,1.90
2019-06-15T10:39:55.211Z,1.90
2019-06-15T10:42:26.903Z,1.33
2019-06-15T10:44:58.647Z,1.73
2019-06-15T10:47:32.647Z,1.40
2019-06-15T10:50:04.842Z,1.37
2019-06-15T10:52:37.104Z,1.40
2019-06-15T10:55:09.954Z,1.50
2019-06-15T10:57:42.558Z,1.40
2019-06-15T11:00:17.367Z,1.20
2019-06-15T11:02:49.050Z,1.43
2019-06-15T11:05:22.613Z,1.10
2019-06-15T11:07:54.904Z,1.20
2019-06-15T11:10:42.339Z,1.70
2019-06-15T11:13:14.047Z,1.47
2019-06-15T11:15:46.142Z,1.87
2019-06-15T11:18:17.975Z,1.70
2019-06-15T11:20:50.206Z,1.40
2019-06-15T11:23:22.306Z,1.40
2019-06-15T11:25:54.939Z,1.50
2019-06-15T11:28:26.609Z,1.30
2019-06-15T11:30:58.578Z,1.50
2019-06-15T11:33:30.754Z,1.20
2019-06-15T11:36:02.653Z,1.23
2019-06-15T11:38:35.049Z,1.43
2019-06-15T11:41:07.262Z,2.10
2019-06-15T11:43:38.998Z,2.00
2019-06-15T11:46:10.805Z,1.33
2019-06-15T11:48:42.520Z,1.30
2019-06-15T11:51:14.389Z,1.37
2019-06-15T11:53:46.241Z,1.77
2019-06-15T11:56:18.175Z,1.23
2019-06-15T11:58:49.876Z,1.23
2019-06-15T12:01:21.683Z,1.60
2019-06-15T12:03:53.585Z,1.20
2019-06-15T12:06:25.358Z,1.80
2019-06-15T12:08:57.177Z,1.70
2019-06-15T12:11:29.110Z,1.80
2019-06-15T12:14:00.891Z,1.40
2019-06-15T12:16:32.610Z,1.50
2019-06-15T12:19:04.555Z,1.60
2019-06-15T12:21:36.269Z,1.40
2019-06-15T12:24:08.095Z,1.60
2019-06-15T12:26:40.010Z,1.40
2019-06-15T12:29:11.853Z,1.67
2019-06-15T12:31:44.047Z,1.90
2019-06-15T12:34:16.446Z,1.40
2019-06-15T12:36:48.252Z,1.53
2019-06-15T12:39:19.986Z,1.70
2019-06-15T12:41:51.942Z,1.30
2019-06-15T12:44:24.046Z,1.60
2019-06-15T12:46:55.836Z,1.30
2019-06-15T12:49:27.522Z,1.30
2019-06-15T12:51:59.389Z,1.83
2019-06-15T12:54:31.140Z,1.50
2019-06-15T12:57:03.388Z,1.33
2019-06-15T12:59:35.283Z,1.10
2019-06-15T13:02:07.398Z,1.63
2019-06-15T13:04:39.137Z,1.40
2019-06-15T13:07:10.937Z,1.57
2019-06-15T13:09:42.683Z,1.30
2019-06-15T13:12:14.488Z,1.50
2019-06-15T13:14:46.377Z,1.90
2019-06-15T13:17:18.129Z,1.43
2019-06-15T13:19:49.981Z,1.33
2019-06-15T13:22:21.737Z,1.50
2019-06-15T13:24:53.520Z,1.37
2019-06-15T13:27:25.295Z,1.40
2019-06-15T13:29:57.168Z,1.17
2019-06-15T13:32:28.917Z,1.60
2019-06-15T13:35:00.702Z,1.40
2019-06-15T13:37:41.663Z,1.17
2019-06-15T13:40:06.208Z,1.43
2019-06-15T13:42:37.926Z,1.20
2019-06-15T13:45:10.664Z,1.50
2019-06-15T13:47:42.432Z,1.27
2019-06-15T13:50:15.818Z,1.30
2019-06-15T13:52:47.614Z,1.30
2019-06-15T13:55:22.015Z,1.10
2019-06-15T13:57:53.938Z,1.10
2019-06-15T14:00:25.963Z,1.47
2019-06-15T14:02:57.771Z,1.30
2019-06-15T14:05:29.744Z,1.60
2019-06-15T14:08:01.456Z,1.50
2019-06-15T14:10:33.239Z,1.90
2019-06-15T14:13:05.002Z,1.70
2019-06-15T14:15:36.856Z,1.40
2019-06-15T14:18:08.677Z,1.30
2019-06-15T14:20:40.476Z,1.30
2019-06-15T14:23:12.280Z,1.23
2019-06-15T14:25:44.013Z,1.60
2019-06-15T14:28:16.056Z,1.30
2019-06-15T14:30:47.744Z,1.40
2019-06-15T14:33:19.599Z,1.40
2019-06-15T14:35:51.298Z,1.30
2019-06-15T14:38:23.011Z,1.70
2019-06-15T14:40:54.796Z,1.87
2019-06-15T14:43:26.564Z,4.07
2019-06-15T14:45:59.914Z,2.80
2019-06-15T14:48:31.853Z,2.27
2019-06-15T14:51:03.614Z,2.60
2019-06-15T14:53:36.684Z,5.00
2019-06-15T14:56:08.905Z,3.57
2019-06-15T14:58:40.639Z,2.67
2019-06-15T15:01:12.291Z,6.00
2019-06-15T15:03:47.089Z,4.10
2019-06-15T15:06:17.799Z,4.70
2019-06-15T15:08:49.634Z,4.70
2019-06-15T15:11:21.298Z,2.63
2019-06-15T15:13:53.061Z,1.70
2019-06-15T15:16:25.061Z,2.43
2019-06-15T15:18:58.084Z,3.97
2019-06-15T15:21:30.005Z,3.33
2019-06-15T15:24:01.693Z,2.30
2019-06-15T15:26:33.664Z,2.23
2019-06-15T15:29:07.020Z,2.00
2019-06-15T15:31:38.940Z,2.37
2019-06-15T15:34:11.195Z,2.07
2019-06-15T15:36:42.952Z,2.00
2019-06-15T15:39:16.721Z,1.60
2019-06-15T15:41:48.364Z,1.50
2019-06-15T15:44:20.079Z,2.00
2019-06-15T15:46:51.870Z,1.40
2019-06-15T15:49:23.772Z,1.47
2019-06-15T15:51:56.632Z,2.17
2019-06-15T15:54:28.481Z,1.93
2019-06-15T15:57:00.218Z,1.40
2019-06-15T15:59:32.025Z,1.87
2019-06-15T16:02:03.754Z,1.70
2019-06-15T16:04:37.095Z,1.53
2019-06-15T16:07:08.909Z,1.63
2019-06-15T16:09:41.122Z,2.33
2019-06-15T16:12:12.863Z,1.50
2019-06-15T16:14:44.619Z,1.57
2019-06-15T16:17:16.655Z,1.70
2019-06-15T16:19:48.922Z,1.50
2019-06-15T16:22:20.778Z,1.60
2019-06-15T16:24:52.504Z,1.80
2019-06-15T16:27:26.363Z,2.10
2019-06-15T16:29:57.763Z,1.57
2019-06-15T16:32:29.516Z,1.70
2019-06-15T16:35:01.336Z,1.70
2019-06-15T16:37:33.179Z,1.50
2019-06-15T16:40:05.364Z,1.83
2019-06-15T16:42:37.059Z,2.00
2019-06-15T16:45:08.963Z,1.80
2019-06-15T16:47:40.699Z,1.80
2019-06-15T16:50:12.744Z,1.60
2019-06-15T16:52:46.805Z,1.97
2019-06-15T16:55:18.033Z,1.60
2019-06-15T16:57:49.758Z,1.40
2019-06-15T17:00:21.953Z,1.53
2019-06-15T17:02:54.378Z,1.60
2019-06-15T17:05:27.447Z,1.87
2019-06-15T17:07:59.422Z,1.67
2019-06-15T17:10:38.712Z,1.77
2019-06-15T17:13:10.926Z,1.63
2019-06-15T17:15:42.872Z,1.70
2019-06-15T17:18:14.747Z,1.70
2019-06-15T17:20:51.587Z,2.07
2019-06-15T17:23:23.271Z,2.50
2019-06-15T17:25:55.316Z,1.80
2019-06-15T17:28:27.378Z,1.70
2019-06-15T17:30:59.697Z,1.63
2019-06-15T17:33:37.544Z,2.20
2019-06-15T17:36:06.832Z,1.97
2019-06-15T17:38:38.761Z,1.90
2019-06-15T17:41:11.000Z,1.77
2019-06-15T17:43:42.929Z,1.67
2019-06-15T17:46:16.499Z,1.57
2019-06-15T17:48:48.280Z,2.40
2019-06-15T17:51:20.490Z,1.57
2019-06-15T17:53:52.254Z,1.90
2019-06-15T17:56:26.658Z,1.70
2019-06-15T17:58:57.578Z,1.77
2019-06-15T18:01:29.281Z,1.97
2019-06-15T18:04:01.305Z,1.83
2019-06-15T18:06:33.042Z,1.70
2019-06-15T18:09:06.604Z,1.73
2019-06-15T18:11:38.536Z,2.07
2019-06-15T18:14:10.442Z,1.80
2019-06-15T18:16:42.267Z,1.70
2019-06-15T18:19:16.785Z,1.90
2019-06-15T18:21:47.619Z,2.73
2019-06-15T18:24:19.591Z,4.00
2019-06-15T18:26:51.570Z,4.70
2019-06-15T18:29:23.393Z,2.90
2019-06-15T18:31:56.686Z,2.90
2019-06-15T18:34:28.445Z,1.90
2019-06-15T18:37:00.312Z,1.93
2019-06-15T18:39:32.600Z,2.00
2019-06-15T18:42:04.387Z,1.90
2019-06-15T18:44:36.643Z,1.90
2019-06-15T18:47:08.514Z,2.03
2019-06-15T18:49:40.203Z,2.53
2019-06-15T18:52:12.116Z,1.80
2019-06-15T18:54:46.632Z,1.90
2019-06-15T18:57:18.106Z,1.97
2019-06-15T18:59:49.853Z,2.10
2019-06-15T19:02:21.618Z,2.20
2019-06-15T19:04:53.360Z,1.90
2019-06-15T19:07:26.997Z,1.63
2019-06-15T19:09:59.190Z,2.00
2019-06-15T19:12:31.336Z,1.83
2019-06-15T19:15:03.577Z,1.90
2019-06-15T19:17:37.064Z,2.43
2019-06-15T19:20:10.564Z,1.93
2019-06-15T19:22:42.522Z,1.80
2019-06-15T19:25:16.186Z,1.80
2019-06-15T19:27:48.063Z,2.13
2019-06-15T19:30:20.503Z,1.93
2019-06-15T19:32:52.394Z,1.90
2019-06-15T19:35:26.328Z,2.00
2019-06-15T19:37:58.185Z,2.23
2019-06-15T19:40:30.071Z,1.97
2019-06-15T19:43:02.075Z,2.00
2019-06-15T19:45:33.936Z,1.80
2019-06-15T19:48:06.877Z,2.17
2019-06-15T19:50:38.929Z,1.90
2019-06-15T19:53:10.629Z,2.17
2019-06-15T19:55:42.741Z,1.90
2019-06-15T19:58:16.767Z,2.10
2019-06-15T20:00:50.336Z,2.43
2019-06-15T20:03:23.675Z,2.13
2019-06-15T20:05:56.954Z,2.43
2019-06-15T20:08:30.389Z,2.40
2019-06-15T20:11:04.021Z,2.40
2019-06-15T20:13:37.048Z,2.00
2019-06-15T20:16:09.048Z,2.27
2019-06-15T20:18:40.868Z,2.17
2019-06-15T20:21:12.852Z,2.40
2019-06-15T20:23:46.859Z,2.50
2019-06-15T20:26:18.216Z,2.40
2019-06-15T20:28:50.093Z,2.07
2019-06-15T20:31:21.955Z,2.23
2019-06-15T20:33:53.849Z,2.00
2019-06-15T20:36:26.898Z,2.17
2019-06-15T20:39:01.011Z,2.40
2019-06-15T20:41:32.775Z,2.60
2019-06-15T20:44:04.764Z,2.60
2019-06-15T20:46:37.253Z,2.60
2019-06-15T20:49:09.420Z,2.77
2019-06-15T20:51:41.217Z,2.60
2019-06-15T20:54:12.987Z,3.63
2019-06-15T20:56:46.171Z,2.90
2019-06-15T20:59:17.927Z,2.80
2019-06-15T21:01:49.668Z,3.10
2019-06-15T21:04:21.452Z,2.63
2019-06-15T21:06:53.470Z,3.37
2019-06-15T21:09:27.528Z,4.63
2019-06-15T21:11:58.977Z,5.60
2019-06-15T21:14:30.764Z,4.87
2019-06-15T21:17:02.683Z,3.70
2019-06-15T21:19:36.065Z,3.40
2019-06-15T21:22:08.170Z,3.23
2019-06-15T21:24:39.896Z,2.80
2019-06-15T21:27:11.945Z,2.60
2019-06-15T21:29:43.771Z,2.67
2019-06-15T21:32:16.115Z,2.87
2019-06-15T21:34:47.925Z,3.00
2019-06-15T21:37:19.693Z,2.97
2019-06-15T21:39:51.542Z,2.80
2019-06-15T21:42:23.428Z,2.87
2019-06-15T21:44:56.222Z,3.23
2019-06-15T21:47:28.135Z,2.70
2019-06-15T21:49:59.868Z,2.77
2019-06-15T21:52:31.961Z,3.30
2019-06-15T21:55:03.661Z,3.23
2019-06-15T21:57:36.529Z,3.20
2019-06-15T22:00:13.527Z,3.20
2019-06-15T22:02:47.189Z,3.63
2019-06-15T22:05:21.887Z,3.20
2019-06-15T22:07:56.638Z,2.80
2019-06-15T22:10:27.990Z,3.40
2019-06-15T22:12:59.869Z,3.40
2019-06-15T22:15:31.948Z,3.17
2019-06-15T22:18:03.780Z,3.63
2019-06-15T22:20:35.988Z,3.23
2019-06-15T22:23:07.918Z,3.83
2019-06-15T22:25:39.728Z,2.87
2019-06-15T22:28:11.963Z,2.63
2019-06-15T22:30:46.235Z,3.33
2019-06-15T22:33:17.831Z,3.07
2019-06-15T22:35:49.576Z,3.57
2019-06-15T22:38:21.343Z,3.97
2019-06-15T22:40:53.302Z,3.50
2019-06-15T22:43:27.129Z,3.50
2019-06-15T22:45:58.591Z,4.37
2019-06-15T22:48:30.464Z,3.80
2019-06-15T22:51:02.309Z,3.47
2019-06-15T22:53:36.493Z,3.50
2019-06-15T22:56:08.057Z,3.53
2019-06-15T22:58:39.772Z,3.70
2019-06-15T23:01:11.759Z,3.10
2019-06-15T23:03:46.321Z,3.70
2019-06-15T23:06:16.968Z,3.00
2019-06-15T23:08:48.827Z,3.50
2019-06-15T23:11:20.578Z,3.30
2019-06-15T23:13:52.234Z,3.03
2019-06-15T23:16:26.758Z,3.30
2019-06-15T23:18:57.827Z,3.27
2019-06-15T23:21:29.928Z,3.33
2019-06-15T23:24:01.768Z,3.47
2019-06-15T23:26:33.514Z,3.37
2019-06-15T23:29:06.948Z,3.37
2019-06-15T23:31:38.956Z,3.77
2019-06-15T23:34:10.771Z,3.30
2019-06-15T23:36:54.273Z,3.30
2019-06-15T23:39:17.954Z,3.23
2019-06-15T23:41:49.948Z,3.50
2019-06-15T23:44:27.016Z,3.53
2019-06-15T23:47:01.973Z,3.90
2019-06-15T23:49:36.526Z,3.90
2019-06-15T23:52:07.632Z,3.30
2019-06-15T23:54:39.518Z,3.07
2019-06-15T23:57:14.028Z,3.70
2019-06-15T23:59:46.542Z,3.10
